ENSO/SRP METAR and TAF weather

Enter ICAO airport designator
Station Type Date Time Source
ENSO METAR 2018/04/21 10:50 UTC NOAA

ENSO 211050Z 34004KT 290V030 9999 SCT017 SCT025 10/07 Q1020


Station Type Date Time Source
ENSO Decoded METAR 2018/04/21 10:50 UTC NOAA

Stord / Soerstokken, Norway (ENSO) 59-48N 005-21E
Apr 21, 2018 - 06:50 AM EDT / 2018.04.21 1050 UTC
Wind: from the NNW (340 degrees) at 5 MPH (4 KT) (direction variable):0
Visibility: greater than 7 mile(s):0
Sky conditions: partly cloudy
Temperature: 50 F (10 C)
Dew Point: 44 F (7 C)
Relative Humidity: 81%
Pressure (altimeter): 30.12 in. Hg (1020 hPa)
ob: ENSO 211050Z 34004KT 290V030 9999 SCT017 SCT025 10/07 Q1020
cycle: 11

Station Type Date Time Source
ENSO TAF UTC NOAA

Error!


Example: see airport list